sensor_id;sensor_type;location;lat;lon;timestamp;temperature;humidity
35796;DHT22;21916;52.428;13.302;2024-03-08T00:00:17;2.40;99.90
35796;DHT22;21916;52.428;13.302;2024-03-08T00:02:45;2.40;99.90
35796;DHT22;21916;52.428;13.302;2024-03-08T00:05:12;2.30;99.90
35796;DHT22;21916;52.428;13.302;2024-03-08T00:07:38;2.30;99.90
35796;DHT22;21916;52.428;13.302;2024-03-08T00:10:09;2.20;99.90
35796;DHT22;21916;52.428;13.302;2024-03-08T00:12:39;2.20;99.90
35796;DHT22;21916;52.428;13.302;2024-03-08T00:15:08;2.10;99.90
35796;DHT22;21916;52.428;13.302;2024-03-08T00:17:35;2.30;99.90
35796;DHT22;21916;52.428;13.302;2024-03-08T00:20:00;2.30;99.90
35796;DHT22;21916;52.428;13.302;2024-03-08T00:22:26;2.30;99.90
35796;DHT22;21916;52.428;13.302;2024-03-08T00:24:52;2.20;99.90
35796;DHT22;21916;52.428;13.302;2024-03-08T00:27:17;2.20;99.90
35796;DHT22;21916;52.428;13.302;2024-03-08T00:29:46;2.30;99.90
35796;DHT22;21916;52.428;13.302;2024-03-08T00:32:12;2.10;99.90
35796;DHT22;21916;52.428;13.302;2024-03-08T00:34:39;2.10;99.90
35796;DHT22;21916;52.428;13.302;2024-03-08T00:37:05;2.20;99.90
35796;DHT22;21916;52.428;13.302;2024-03-08T00:39:31;2.00;99.90
35796;DHT22;21916;52.428;13.302;2024-03-08T00:41:56;1.90;99.90
35796;DHT22;21916;52.428;13.302;2024-03-08T00:44:22;1.90;99.90
35796;DHT22;21916;52.428;13.302;2024-03-08T00:46:48;1.80;99.90
35796;DHT22;21916;52.428;13.302;2024-03-08T00:49:15;1.70;99.90
35796;DHT22;21916;52.428;13.302;2024-03-08T00:51:40;1.70;99.90
35796;DHT22;21916;52.428;13.302;2024-03-08T00:54:06;1.70;99.90
35796;DHT22;21916;52.428;13.302;2024-03-08T00:56:32;1.70;99.90
35796;DHT22;21916;52.428;13.302;2024-03-08T00:58:59;1.70;99.90
35796;DHT22;21916;52.428;13.302;2024-03-08T01:01:25;1.70;99.90
35796;DHT22;21916;52.428;13.302;2024-03-08T01:03:51;1.60;99.90
35796;DHT22;21916;52.428;13.302;2024-03-08T01:06:17;1.70;99.90
35796;DHT22;21916;52.428;13.302;2024-03-08T01:08:44;1.80;99.90
35796;DHT22;21916;52.428;13.302;2024-03-08T01:11:12;1.60;99.90
35796;DHT22;21916;52.428;13.302;2024-03-08T01:13:38;1.50;99.90
35796;DHT22;21916;52.428;13.302;2024-03-08T01:16:04;1.50;99.90
35796;DHT22;21916;52.428;13.302;2024-03-08T01:18:29;1.50;99.90
35796;DHT22;21916;52.428;13.302;2024-03-08T01:20:55;1.50;99.90
35796;DHT22;21916;52.428;13.302;2024-03-08T01:23:21;1.50;99.90
35796;DHT22;21916;52.428;13.302;2024-03-08T01:25:47;1.50;99.90
35796;DHT22;21916;52.428;13.302;2024-03-08T01:28:23;1.50;99.90
35796;DHT22;21916;52.428;13.302;2024-03-08T01:30:49;1.50;99.90
35796;DHT22;21916;52.428;13.302;2024-03-08T01:33:24;1.50;99.90
35796;DHT22;21916;52.428;13.302;2024-03-08T01:35:54;1.50;99.90
35796;DHT22;21916;52.428;13.302;2024-03-08T01:38:22;1.50;99.90
35796;DHT22;21916;52.428;13.302;2024-03-08T01:40:49;1.50;99.90
35796;DHT22;21916;52.428;13.302;2024-03-08T01:43:22;1.40;99.90
35796;DHT22;21916;52.428;13.302;2024-03-08T01:45:51;1.40;99.90
35796;DHT22;21916;52.428;13.302;2024-03-08T01:48:17;1.30;99.90
35796;DHT22;21916;52.428;13.302;2024-03-08T01:50:45;1.30;99.90
35796;DHT22;21916;52.428;13.302;2024-03-08T01:53:11;1.30;99.90
35796;DHT22;21916;52.428;13.302;2024-03-08T01:55:38;1.30;99.90
35796;DHT22;21916;52.428;13.302;2024-03-08T01:58:09;1.30;99.90
35796;DHT22;21916;52.428;13.302;2024-03-08T02:00:36;1.30;99.90
35796;DHT22;21916;52.428;13.302;2024-03-08T02:03:05;1.30;99.90
35796;DHT22;21916;52.428;13.302;2024-03-08T02:05:32;1.30;99.90
35796;DHT22;21916;52.428;13.302;2024-03-08T02:07:57;1.30;99.90
35796;DHT22;21916;52.428;13.302;2024-03-08T02:10:23;1.30;99.90
35796;DHT22;21916;52.428;13.302;2024-03-08T02:12:49;1.20;99.90
35796;DHT22;21916;52.428;13.302;2024-03-08T02:15:15;1.10;99.90
35796;DHT22;21916;52.428;13.302;2024-03-08T02:17:41;1.10;99.90
35796;DHT22;21916;52.428;13.302;2024-03-08T02:20:08;1.20;99.90
35796;DHT22;21916;52.428;13.302;2024-03-08T02:22:35;1.10;99.90
35796;DHT22;21916;52.428;13.302;2024-03-08T02:25:02;1.00;99.90
35796;DHT22;21916;52.428;13.302;2024-03-08T02:27:29;0.90;99.90
35796;DHT22;21916;52.428;13.302;2024-03-08T02:29:57;0.90;99.90
35796;DHT22;21916;52.428;13.302;2024-03-08T02:32:26;0.90;99.90
35796;DHT22;21916;52.428;13.302;2024-03-08T02:34:56;0.80;99.90
35796;DHT22;21916;52.428;13.302;2024-03-08T02:37:21;0.80;99.90
35796;DHT22;21916;52.428;13.302;2024-03-08T02:39:47;0.80;99.90
35796;DHT22;21916;52.428;13.302;2024-03-08T02:42:13;0.90;99.90
35796;DHT22;21916;52.428;13.302;2024-03-08T02:44:42;0.90;99.90
35796;DHT22;21916;52.428;13.302;2024-03-08T02:47:10;0.70;99.90
35796;DHT22;21916;52.428;13.302;2024-03-08T02:49:36;0.70;99.90
35796;DHT22;21916;52.428;13.302;2024-03-08T02:52:04;0.70;99.90
35796;DHT22;21916;52.428;13.302;2024-03-08T02:54:30;0.90;99.90
35796;DHT22;21916;52.428;13.302;2024-03-08T02:56:56;0.70;99.90
35796;DHT22;21916;52.428;13.302;2024-03-08T02:59:22;0.80;99.90
35796;DHT22;21916;52.428;13.302;2024-03-08T03:01:49;0.80;99.90
35796;DHT22;21916;52.428;13.302;2024-03-08T03:04:14;0.80;99.90
35796;DHT22;21916;52.428;13.302;2024-03-08T03:06:40;0.70;99.90
35796;DHT22;21916;52.428;13.302;2024-03-08T03:09:07;0.60;99.90
35796;DHT22;21916;52.428;13.302;2024-03-08T03:11:32;0.80;99.90
35796;DHT22;21916;52.428;13.302;2024-03-08T03:13:58;0.70;99.90
35796;DHT22;21916;52.428;13.302;2024-03-08T03:16:24;0.70;99.90
35796;DHT22;21916;52.428;13.302;2024-03-08T03:18:49;0.70;99.90
35796;DHT22;21916;52.428;13.302;2024-03-08T03:21:15;0.60;99.90
35796;DHT22;21916;52.428;13.302;2024-03-08T03:23:41;0.60;99.90
35796;DHT22;21916;52.428;13.302;2024-03-08T03:26:09;0.40;99.90
35796;DHT22;21916;52.428;13.302;2024-03-08T03:28:38;0.50;99.90
35796;DHT22;21916;52.428;13.302;2024-03-08T03:31:08;0.50;99.90
35796;DHT22;21916;52.428;13.302;2024-03-08T03:33:40;0.60;99.90
35796;DHT22;21916;52.428;13.302;2024-03-08T03:36:05;0.60;99.90
35796;DHT22;21916;52.428;13.302;2024-03-08T03:38:34;0.50;99.90
35796;DHT22;21916;52.428;13.302;2024-03-08T03:41:00;0.40;99.90
35796;DHT22;21916;52.428;13.302;2024-03-08T03:43:33;0.60;99.90
35796;DHT22;21916;52.428;13.302;2024-03-08T03:45:58;0.60;99.90
35796;DHT22;21916;52.428;13.302;2024-03-08T03:48:24;0.50;99.90
35796;DHT22;21916;52.428;13.302;2024-03-08T03:50:49;0.40;99.90
35796;DHT22;21916;52.428;13.302;2024-03-08T03:53:15;0.50;99.90
35796;DHT22;21916;52.428;13.302;2024-03-08T03:55:41;0.30;99.90
35796;DHT22;21916;52.428;13.302;2024-03-08T03:58:08;0.40;99.90
35796;DHT22;21916;52.428;13.302;2024-03-08T04:00:35;0.40;99.90
35796;DHT22;21916;52.428;13.302;2024-03-08T04:03:01;0.30;99.90
35796;DHT22;21916;52.428;13.302;2024-03-08T04:05:26;0.40;99.90
35796;DHT22;21916;52.428;13.302;2024-03-08T04:07:52;0.40;99.90
35796;DHT22;21916;52.428;13.302;2024-03-08T04:10:18;0.50;99.90
35796;DHT22;21916;52.428;13.302;2024-03-08T04:12:44;0.50;99.90
35796;DHT22;21916;52.428;13.302;2024-03-08T04:15:10;0.50;99.90
35796;DHT22;21916;52.428;13.302;2024-03-08T04:17:36;0.40;99.90
35796;DHT22;21916;52.428;13.302;2024-03-08T04:20:05;0.40;99.90
35796;DHT22;21916;52.428;13.302;2024-03-08T04:22:37;0.40;99.90
35796;DHT22;21916;52.428;13.302;2024-03-08T04:25:04;0.30;99.90
35796;DHT22;21916;52.428;13.302;2024-03-08T04:27:31;0.30;99.90
35796;DHT22;21916;52.428;13.302;2024-03-08T04:29:58;0.30;99.90
35796;DHT22;21916;52.428;13.302;2024-03-08T04:32:25;0.30;99.90
35796;DHT22;21916;52.428;13.302;2024-03-08T04:34:51;0.30;99.90
35796;DHT22;21916;52.428;13.302;2024-03-08T04:37:17;0.40;99.90
35796;DHT22;21916;52.428;13.302;2024-03-08T04:39:48;0.50;99.90
35796;DHT22;21916;52.428;13.302;2024-03-08T04:42:14;0.40;99.90
35796;DHT22;21916;52.428;13.302;2024-03-08T04:44:41;0.50;99.90
35796;DHT22;21916;52.428;13.302;2024-03-08T04:47:07;0.40;99.90
35796;DHT22;21916;52.428;13.302;2024-03-08T04:49:33;0.30;99.90
35796;DHT22;21916;52.428;13.302;2024-03-08T04:52:03;0.50;99.90
35796;DHT22;21916;52.428;13.302;2024-03-08T04:54:29;0.50;99.90
35796;DHT22;21916;52.428;13.302;2024-03-08T04:56:55;0.20;99.90
35796;DHT22;21916;52.428;13.302;2024-03-08T04:59:22;0.20;99.90
35796;DHT22;21916;52.428;13.302;2024-03-08T05:01:49;0.20;99.90
35796;DHT22;21916;52.428;13.302;2024-03-08T05:04:15;0.20;99.90
35796;DHT22;21916;52.428;13.302;2024-03-08T05:06:40;0.10;99.90
35796;DHT22;21916;52.428;13.302;2024-03-08T05:09:07;0.10;99.90
35796;DHT22;21916;52.428;13.302;2024-03-08T05:11:43;0.00;99.90
35796;DHT22;21916;52.428;13.302;2024-03-08T05:14:13;0.00;99.90
35796;DHT22;21916;52.428;13.302;2024-03-08T05:16:46;0.00;99.90
35796;DHT22;21916;52.428;13.302;2024-03-08T05:19:16;-0.10;99.90
35796;DHT22;21916;52.428;13.302;2024-03-08T05:21:46;0.00;99.90
35796;DHT22;21916;52.428;13.302;2024-03-08T05:24:11;0.10;99.90
35796;DHT22;21916;52.428;13.302;2024-03-08T05:26:38;0.30;99.90
35796;DHT22;21916;52.428;13.302;2024-03-08T05:29:04;0.20;99.90
35796;DHT22;21916;52.428;13.302;2024-03-08T05:31:47;0.30;99.90
35796;DHT22;21916;52.428;13.302;2024-03-08T05:34:14;0.20;99.90
35796;DHT22;21916;52.428;13.302;2024-03-08T05:36:40;0.10;99.90
35796;DHT22;21916;52.428;13.302;2024-03-08T05:39:06;0.00;99.90
35796;DHT22;21916;52.428;13.302;2024-03-08T05:41:32;0.00;99.90
35796;DHT22;21916;52.428;13.302;2024-03-08T05:43:58;0.00;99.90
35796;DHT22;21916;52.428;13.302;2024-03-08T05:46:24;0.00;99.90
35796;DHT22;21916;52.428;13.302;2024-03-08T05:48:49;0.00;99.90
35796;DHT22;21916;52.428;13.302;2024-03-08T05:51:15;0.00;99.90
35796;DHT22;21916;52.428;13.302;2024-03-08T05:53:41;0.10;99.90
35796;DHT22;21916;52.428;13.302;2024-03-08T05:56:06;0.00;99.90
35796;DHT22;21916;52.428;13.302;2024-03-08T05:58:32;0.20;99.90
35796;DHT22;21916;52.428;13.302;2024-03-08T06:00:58;0.30;99.90
35796;DHT22;21916;52.428;13.302;2024-03-08T06:03:26;0.30;99.90
35796;DHT22;21916;52.428;13.302;2024-03-08T06:05:51;0.30;99.90
35796;DHT22;21916;52.428;13.302;2024-03-08T06:08:18;0.20;99.90
35796;DHT22;21916;52.428;13.302;2024-03-08T06:10:45;0.20;99.90
35796;DHT22;21916;52.428;13.302;2024-03-08T06:13:14;0.20;99.90
35796;DHT22;21916;52.428;13.302;2024-03-08T06:15:39;0.40;99.90
35796;DHT22;21916;52.428;13.302;2024-03-08T06:18:07;0.50;99.90
35796;DHT22;21916;52.428;13.302;2024-03-08T06:20:36;0.60;99.90
35796;DHT22;21916;52.428;13.302;2024-03-08T06:23:01;0.70;99.90
35796;DHT22;21916;52.428;13.302;2024-03-08T06:25:27;0.80;99.90
35796;DHT22;21916;52.428;13.302;2024-03-08T06:27:53;0.90;99.90
35796;DHT22;21916;52.428;13.302;2024-03-08T06:30:18;0.90;99.90
35796;DHT22;21916;52.428;13.302;2024-03-08T06:32:45;1.00;99.90
35796;DHT22;21916;52.428;13.302;2024-03-08T06:35:11;1.00;99.90
35796;DHT22;21916;52.428;13.302;2024-03-08T06:37:37;1.10;99.90
35796;DHT22;21916;52.428;13.302;2024-03-08T06:40:03;1.20;99.90
35796;DHT22;21916;52.428;13.302;2024-03-08T06:42:29;1.30;99.90
35796;DHT22;21916;52.428;13.302;2024-03-08T06:44:59;1.40;99.90
35796;DHT22;21916;52.428;13.302;2024-03-08T06:47:30;1.40;99.90
35796;DHT22;21916;52.428;13.302;2024-03-08T06:49:56;1.50;99.90
35796;DHT22;21916;52.428;13.302;2024-03-08T06:52:21;1.60;99.90
35796;DHT22;21916;52.428;13.302;2024-03-08T06:54:48;1.80;99.90
35796;DHT22;21916;52.428;13.302;2024-03-08T06:57:13;1.90;99.90
35796;DHT22;21916;52.428;13.302;2024-03-08T06:59:39;1.90;99.90
35796;DHT22;21916;52.428;13.302;2024-03-08T07:02:05;2.00;99.90
35796;DHT22;21916;52.428;13.302;2024-03-08T07:04:34;2.10;99.90
35796;DHT22;21916;52.428;13.302;2024-03-08T07:07:06;2.10;99.90
35796;DHT22;21916;52.428;13.302;2024-03-08T07:09:36;2.20;99.90
35796;DHT22;21916;52.428;13.302;2024-03-08T07:12:02;2.10;99.90
35796;DHT22;21916;52.428;13.302;2024-03-08T07:14:28;2.30;99.90
35796;DHT22;21916;52.428;13.302;2024-03-08T07:16:54;2.30;99.90
35796;DHT22;21916;52.428;13.302;2024-03-08T07:19:20;2.30;99.90
35796;DHT22;21916;52.428;13.302;2024-03-08T07:21:47;2.50;99.90
35796;DHT22;21916;52.428;13.302;2024-03-08T07:24:13;2.60;99.90
35796;DHT22;21916;52.428;13.302;2024-03-08T07:26:57;2.70;99.90
35796;DHT22;21916;52.428;13.302;2024-03-08T07:29:23;2.80;99.90
35796;DHT22;21916;52.428;13.302;2024-03-08T07:31:49;2.90;99.90
35796;DHT22;21916;52.428;13.302;2024-03-08T07:34:27;3.10;99.90
35796;DHT22;21916;52.428;13.302;2024-03-08T07:36:57;3.10;99.90
35796;DHT22;21916;52.428;13.302;2024-03-08T07:39:23;3.40;99.90
35796;DHT22;21916;52.428;13.302;2024-03-08T07:41:49;3.30;99.90
35796;DHT22;21916;52.428;13.302;2024-03-08T07:44:18;3.40;99.90
35796;DHT22;21916;52.428;13.302;2024-03-08T07:46:44;3.50;99.90
35796;DHT22;21916;52.428;13.302;2024-03-08T07:49:10;3.60;99.90
35796;DHT22;21916;52.428;13.302;2024-03-08T07:51:40;3.60;99.90
35796;DHT22;21916;52.428;13.302;2024-03-08T07:54:05;3.70;99.90
35796;DHT22;21916;52.428;13.302;2024-03-08T07:56:32;3.80;99.90
35796;DHT22;21916;52.428;13.302;2024-03-08T07:58:58;3.90;99.90
35796;DHT22;21916;52.428;13.302;2024-03-08T08:01:24;4.00;99.90
35796;DHT22;21916;52.428;13.302;2024-03-08T08:03:50;4.00;99.90
35796;DHT22;21916;52.428;13.302;2024-03-08T08:06:16;4.20;99.90
35796;DHT22;21916;52.428;13.302;2024-03-08T08:08:42;4.30;99.90
35796;DHT22;21916;52.428;13.302;2024-03-08T08:11:08;4.50;99.90
35796;DHT22;21916;52.428;13.302;2024-03-08T08:13:35;4.70;99.90
35796;DHT22;21916;52.428;13.302;2024-03-08T08:16:05;4.70;99.90
35796;DHT22;21916;52.428;13.302;2024-03-08T08:18:34;4.90;99.90
35796;DHT22;21916;52.428;13.302;2024-03-08T08:21:02;5.00;99.90
35796;DHT22;21916;52.428;13.302;2024-03-08T08:23:28;5.10;99.90
35796;DHT22;21916;52.428;13.302;2024-03-08T08:25:54;5.30;99.90
35796;DHT22;21916;52.428;13.302;2024-03-08T08:28:21;5.40;99.90
35796;DHT22;21916;52.428;13.302;2024-03-08T08:30:46;5.60;99.90
35796;DHT22;21916;52.428;13.302;2024-03-08T08:33:12;5.70;99.90
35796;DHT22;21916;52.428;13.302;2024-03-08T08:35:38;5.70;99.90
35796;DHT22;21916;52.428;13.302;2024-03-08T08:38:04;5.80;99.90
35796;DHT22;21916;52.428;13.302;2024-03-08T08:40:30;5.90;99.90
35796;DHT22;21916;52.428;13.302;2024-03-08T08:43:02;6.00;99.90
35796;DHT22;21916;52.428;13.302;2024-03-08T08:45:30;6.10;99.90
35796;DHT22;21916;52.428;13.302;2024-03-08T08:47:58;6.20;99.90
35796;DHT22;21916;52.428;13.302;2024-03-08T08:50:25;6.30;99.90
35796;DHT22;21916;52.428;13.302;2024-03-08T08:52:54;6.40;99.90
35796;DHT22;21916;52.428;13.302;2024-03-08T08:55:20;6.30;99.90
35796;DHT22;21916;52.428;13.302;2024-03-08T08:57:52;6.30;99.90
35796;DHT22;21916;52.428;13.302;2024-03-08T09:00:19;6.30;99.90
35796;DHT22;21916;52.428;13.302;2024-03-08T09:02:46;6.30;99.90
35796;DHT22;21916;52.428;13.302;2024-03-08T09:05:12;6.50;99.90
35796;DHT22;21916;52.428;13.302;2024-03-08T09:07:40;6.70;99.90
35796;DHT22;21916;52.428;13.302;2024-03-08T09:10:06;6.70;99.90
35796;DHT22;21916;52.428;13.302;2024-03-08T09:12:32;6.70;99.90
35796;DHT22;21916;52.428;13.302;2024-03-08T09:14:58;6.90;99.90
35796;DHT22;21916;52.428;13.302;2024-03-08T09:17:25;7.00;99.90
35796;DHT22;21916;52.428;13.302;2024-03-08T09:19:51;6.90;99.90
35796;DHT22;21916;52.428;13.302;2024-03-08T09:22:16;6.90;99.90
35796;DHT22;21916;52.428;13.302;2024-03-08T09:24:43;7.00;99.90
35796;DHT22;21916;52.428;13.302;2024-03-08T09:27:09;7.20;99.90
35796;DHT22;21916;52.428;13.302;2024-03-08T09:29:35;7.20;99.90
35796;DHT22;21916;52.428;13.302;2024-03-08T09:32:01;7.20;99.90
35796;DHT22;21916;52.428;13.302;2024-03-08T09:34:27;7.20;99.90
35796;DHT22;21916;52.428;13.302;2024-03-08T09:36:52;7.40;99.90
35796;DHT22;21916;52.428;13.302;2024-03-08T09:39:19;7.60;99.90
35796;DHT22;21916;52.428;13.302;2024-03-08T09:41:47;7.60;99.80
35796;DHT22;21916;52.428;13.302;2024-03-08T09:44:16;7.70;99.70
35796;DHT22;21916;52.428;13.302;2024-03-08T09:46:42;7.70;99.00
35796;DHT22;21916;52.428;13.302;2024-03-08T09:49:08;7.80;99.20
35796;DHT22;21916;52.428;13.302;2024-03-08T09:51:36;7.80;98.30
35796;DHT22;21916;52.428;13.302;2024-03-08T09:54:02;7.80;97.80
35796;DHT22;21916;52.428;13.302;2024-03-08T09:56:35;7.70;98.20
35796;DHT22;21916;52.428;13.302;2024-03-08T09:59:02;7.80;98.30
35796;DHT22;21916;52.428;13.302;2024-03-08T10:01:58;7.80;98.00
35796;DHT22;21916;52.428;13.302;2024-03-08T10:04:25;7.90;97.60
35796;DHT22;21916;52.428;13.302;2024-03-08T10:06:59;8.10;97.30
35796;DHT22;21916;52.428;13.302;2024-03-08T10:09:26;8.10;96.90
35796;DHT22;21916;52.428;13.302;2024-03-08T10:12:02;8.30;96.80
35796;DHT22;21916;52.428;13.302;2024-03-08T10:14:28;8.50;96.50
35796;DHT22;21916;52.428;13.302;2024-03-08T10:16:54;8.70;96.50
35796;DHT22;21916;52.428;13.302;2024-03-08T10:19:26;8.80;95.80
35796;DHT22;21916;52.428;13.302;2024-03-08T10:21:53;8.90;96.00
35796;DHT22;21916;52.428;13.302;2024-03-08T10:24:19;9.00;95.80
35796;DHT22;21916;52.428;13.302;2024-03-08T10:26:45;9.10;96.00
35796;DHT22;21916;52.428;13.302;2024-03-08T10:29:12;9.30;95.00
35796;DHT22;21916;52.428;13.302;2024-03-08T10:31:43;9.60;94.30
35796;DHT22;21916;52.428;13.302;2024-03-08T10:34:12;9.50;94.00
35796;DHT22;21916;52.428;13.302;2024-03-08T10:36:39;9.50;93.80
35796;DHT22;21916;52.428;13.302;2024-03-08T10:39:21;9.70;93.50
35796;DHT22;21916;52.428;13.302;2024-03-08T10:41:53;9.70;93.60
35796;DHT22;21916;52.428;13.302;2024-03-08T10:47:20;10.10;92.60
35796;DHT22;21916;52.428;13.302;2024-03-08T10:49:54;10.20;92.50
35796;DHT22;21916;52.428;13.302;2024-03-08T10:52:20;10.30;91.90
35796;DHT22;21916;52.428;13.302;2024-03-08T10:54:47;10.50;91.30
35796;DHT22;21916;52.428;13.302;2024-03-08T10:57:18;10.80;91.10
35796;DHT22;21916;52.428;13.302;2024-03-08T10:59:46;10.90;91.10
35796;DHT22;21916;52.428;13.302;2024-03-08T11:02:12;11.10;90.60
35796;DHT22;21916;52.428;13.302;2024-03-08T11:04:38;11.30;88.90
35796;DHT22;21916;52.428;13.302;2024-03-08T11:07:04;11.30;88.00
35796;DHT22;21916;52.428;13.302;2024-03-08T11:09:35;11.60;87.40
35796;DHT22;21916;52.428;13.302;2024-03-08T11:12:20;12.40;86.20
35796;DHT22;21916;52.428;13.302;2024-03-08T11:14:50;13.50;84.50
35796;DHT22;21916;52.428;13.302;2024-03-08T11:17:26;14.70;81.30
35796;DHT22;21916;52.428;13.302;2024-03-08T11:20:14;16.00;77.30
35796;DHT22;21916;52.428;13.302;2024-03-08T11:22:52;16.90;73.00
35796;DHT22;21916;52.428;13.302;2024-03-08T11:25:35;17.90;70.30
35796;DHT22;21916;52.428;13.302;2024-03-08T11:28:20;18.80;67.40
35796;DHT22;21916;52.428;13.302;2024-03-08T11:31:22;19.40;63.50
35796;DHT22;21916;52.428;13.302;2024-03-08T11:33:35;20.10;60.80
35796;DHT22;21916;52.428;13.302;2024-03-08T11:38:41;21.90;57.10
35796;DHT22;21916;52.428;13.302;2024-03-08T11:41:07;22.40;53.70
35796;DHT22;21916;52.428;13.302;2024-03-08T11:43:33;22.10;52.30
35796;DHT22;21916;52.428;13.302;2024-03-08T11:46:09;21.90;52.00
35796;DHT22;21916;52.428;13.302;2024-03-08T11:48:35;21.90;51.90
35796;DHT22;21916;52.428;13.302;2024-03-08T11:51:04;22.80;51.20
35796;DHT22;21916;52.428;13.302;2024-03-08T11:53:30;22.80;49.90
35796;DHT22;21916;52.428;13.302;2024-03-08T11:56:26;23.40;49.90
35796;DHT22;21916;52.428;13.302;2024-03-08T11:58:54;23.70;47.70
35796;DHT22;21916;52.428;13.302;2024-03-08T12:01:22;24.40;47.90
35796;DHT22;21916;52.428;13.302;2024-03-08T12:03:56;25.00;47.40
35796;DHT22;21916;52.428;13.302;2024-03-08T12:06:26;25.40;46.60
35796;DHT22;21916;52.428;13.302;2024-03-08T12:08:52;24.70;44.60
35796;DHT22;21916;52.428;13.302;2024-03-08T12:11:19;24.50;45.00
35796;DHT22;21916;52.428;13.302;2024-03-08T12:13:49;24.70;45.50
35796;DHT22;21916;52.428;13.302;2024-03-08T12:16:20;25.00;43.90
35796;DHT22;21916;52.428;13.302;2024-03-08T12:18:47;25.80;44.70
35796;DHT22;21916;52.428;13.302;2024-03-08T12:21:14;26.00;42.70
35796;DHT22;21916;52.428;13.302;2024-03-08T12:23:44;24.90;42.20
35796;DHT22;21916;52.428;13.302;2024-03-08T12:26:14;24.40;42.40
35796;DHT22;21916;52.428;13.302;2024-03-08T12:28:42;24.30;42.60
35796;DHT22;21916;52.428;13.302;2024-03-08T12:31:12;24.40;42.20
35796;DHT22;21916;52.428;13.302;2024-03-08T12:33:48;23.80;42.40
35796;DHT22;21916;52.428;13.302;2024-03-08T12:36:18;24.10;42.20
35796;DHT22;21916;52.428;13.302;2024-03-08T12:38:48;24.40;42.50
35796;DHT22;21916;52.428;13.302;2024-03-08T12:41:15;24.80;42.40
35796;DHT22;21916;52.428;13.302;2024-03-08T12:43:41;25.40;42.10
35796;DHT22;21916;52.428;13.302;2024-03-08T12:46:07;26.20;41.90
35796;DHT22;21916;52.428;13.302;2024-03-08T12:48:35;25.80;41.40
35796;DHT22;21916;52.428;13.302;2024-03-08T12:51:02;25.90;41.20
35796;DHT22;21916;52.428;13.302;2024-03-08T12:53:28;25.20;41.20
35796;DHT22;21916;52.428;13.302;2024-03-08T12:55:54;25.20;41.00
35796;DHT22;21916;52.428;13.302;2024-03-08T12:58:22;25.30;41.20
35796;DHT22;21916;52.428;13.302;2024-03-08T13:00:47;24.80;41.50
35796;DHT22;21916;52.428;13.302;2024-03-08T13:03:14;25.20;42.00
35796;DHT22;21916;52.428;13.302;2024-03-08T13:05:40;26.00;41.70
35796;DHT22;21916;52.428;13.302;2024-03-08T13:08:08;25.60;41.30
35796;DHT22;21916;52.428;13.302;2024-03-08T13:10:41;26.30;41.60
35796;DHT22;21916;52.428;13.302;2024-03-08T13:13:09;27.10;41.20
35796;DHT22;21916;52.428;13.302;2024-03-08T13:15:35;25.90;40.50
35796;DHT22;21916;52.428;13.302;2024-03-08T13:18:01;26.30;41.40
35796;DHT22;21916;52.428;13.302;2024-03-08T13:20:27;26.30;39.90
35796;DHT22;21916;52.428;13.302;2024-03-08T13:22:54;26.20;40.10
35796;DHT22;21916;52.428;13.302;2024-03-08T13:25:20;25.30;40.90
35796;DHT22;21916;52.428;13.302;2024-03-08T13:27:46;24.70;41.10
35796;DHT22;21916;52.428;13.302;2024-03-08T13:30:13;24.50;41.90
35796;DHT22;21916;52.428;13.302;2024-03-08T13:32:40;25.00;41.50
35796;DHT22;21916;52.428;13.302;2024-03-08T13:35:12;25.30;41.30
35796;DHT22;21916;52.428;13.302;2024-03-08T13:37:41;26.20;41.20
35796;DHT22;21916;52.428;13.302;2024-03-08T13:40:08;26.20;41.00
35796;DHT22;21916;52.428;13.302;2024-03-08T13:42:40;25.90;41.70
35796;DHT22;21916;52.428;13.302;2024-03-08T13:45:09;25.90;42.30
35796;DHT22;21916;52.428;13.302;2024-03-08T13:47:40;26.70;42.20
35796;DHT22;21916;52.428;13.302;2024-03-08T13:50:07;27.00;41.70
35796;DHT22;21916;52.428;13.302;2024-03-08T13:52:37;27.20;41.80
35796;DHT22;21916;52.428;13.302;2024-03-08T13:55:05;26.80;42.20
35796;DHT22;21916;52.428;13.302;2024-03-08T13:57:32;27.10;41.30
35796;DHT22;21916;52.428;13.302;2024-03-08T13:59:58;26.70;41.40
35796;DHT22;21916;52.428;13.302;2024-03-08T14:02:24;27.30;41.40
35796;DHT22;21916;52.428;13.302;2024-03-08T14:04:54;27.00;41.60
35796;DHT22;21916;52.428;13.302;2024-03-08T14:07:20;26.60;41.20
35796;DHT22;21916;52.428;13.302;2024-03-08T14:09:46;26.80;41.20
35796;DHT22;21916;52.428;13.302;2024-03-08T14:12:12;26.80;41.60
35796;DHT22;21916;52.428;13.302;2024-03-08T14:14:41;26.60;41.50
35796;DHT22;21916;52.428;13.302;2024-03-08T14:17:07;26.60;41.50
35796;DHT22;21916;52.428;13.302;2024-03-08T14:19:35;26.60;41.00
35796;DHT22;21916;52.428;13.302;2024-03-08T14:22:01;26.10;41.10
35796;DHT22;21916;52.428;13.302;2024-03-08T14:24:32;25.90;41.30
35796;DHT22;21916;52.428;13.302;2024-03-08T14:27:01;26.50;41.10
35796;DHT22;21916;52.428;13.302;2024-03-08T14:29:29;26.70;41.10
35796;DHT22;21916;52.428;13.302;2024-03-08T14:31:58;26.20;41.30
35796;DHT22;21916;52.428;13.302;2024-03-08T14:34:27;26.10;41.50
35796;DHT22;21916;52.428;13.302;2024-03-08T14:36:55;25.80;41.00
35796;DHT22;21916;52.428;13.302;2024-03-08T14:39:20;26.30;41.40
35796;DHT22;21916;52.428;13.302;2024-03-08T14:41:50;26.30;41.10
35796;DHT22;21916;52.428;13.302;2024-03-08T14:44:19;26.40;40.90
35796;DHT22;21916;52.428;13.302;2024-03-08T14:46:45;25.50;40.90
35796;DHT22;21916;52.428;13.302;2024-03-08T14:49:12;25.10;40.80
35796;DHT22;21916;52.428;13.302;2024-03-08T14:51:37;25.40;41.30
35796;DHT22;21916;52.428;13.302;2024-03-08T14:54:03;25.70;41.30
35796;DHT22;21916;52.428;13.302;2024-03-08T14:56:32;25.80;41.30
35796;DHT22;21916;52.428;13.302;2024-03-08T14:58:58;25.80;41.10
35796;DHT22;21916;52.428;13.302;2024-03-08T15:01:25;25.80;41.00
35796;DHT22;21916;52.428;13.302;2024-03-08T15:03:57;25.80;41.20
35796;DHT22;21916;52.428;13.302;2024-03-08T15:06:29;26.00;40.90
35796;DHT22;21916;52.428;13.302;2024-03-08T15:08:56;26.00;40.80
35796;DHT22;21916;52.428;13.302;2024-03-08T15:11:23;25.50;41.20
35796;DHT22;21916;52.428;13.302;2024-03-08T15:13:51;25.50;40.90
35796;DHT22;21916;52.428;13.302;2024-03-08T15:16:19;24.80;41.40
35796;DHT22;21916;52.428;13.302;2024-03-08T15:18:47;24.40;42.00
35796;DHT22;21916;52.428;13.302;2024-03-08T15:21:14;24.30;42.10
35796;DHT22;21916;52.428;13.302;2024-03-08T15:23:45;24.00;42.20
35796;DHT22;21916;52.428;13.302;2024-03-08T15:26:16;24.00;42.20
35796;DHT22;21916;52.428;13.302;2024-03-08T15:28:45;23.30;42.70
35796;DHT22;21916;52.428;13.302;2024-03-08T15:31:12;22.80;43.00
35796;DHT22;21916;52.428;13.302;2024-03-08T15:33:41;22.30;43.50